Time;durP1;ratioP1;P1;durP2;ratioP2;P2;SDS_P1;SDS_P2;PMS_P1;PMS_P2;Temp;Humidity;BMP_temperature;BMP_pressure;BME280_temperature;BME280_humidity;BME280_pressure;Samples;Min_cycle;Max_cycle;Signal;HPM_P1;HPM_P2
2024/04/11 00:01:30;;;;;;;2.65;0.10;;;12.60;99.90;;;;;;5459606;26;20009;-81
2024/04/11 00:03:57;;;;;;;1.70;0.00;;;12.50;99.90;;;;;;5459206;26;20018;-81
2024/04/11 00:06:23;;;;;;;4.32;0.00;;;12.50;99.90;;;;;;5457486;26;20002;-81
2024/04/11 00:08:49;;;;;;;9.95;0.35;;;12.50;99.90;;;;;;5457869;26;20003;-81
2024/04/11 00:11:14;;;;;;;3.20;0.15;;;12.50;99.90;;;;;;5457618;26;19991;-81
2024/04/11 00:13:40;;;;;;;2.90;0.00;;;12.50;99.90;;;;;;5458696;26;20075;-81
2024/04/11 00:16:05;;;;;;;3.83;0.30;;;12.50;99.90;;;;;;5459809;26;19999;-81
2024/04/11 00:18:32;;;;;;;2.60;0.00;;;12.40;99.90;;;;;;5459153;26;19995;-81
2024/04/11 00:20:57;;;;;;;1.40;0.10;;;;;;;;;;5455759;26;20067;-81
2024/04/11 00:23:23;;;;;;;2.83;0.00;;;12.50;99.90;;;;;;5456545;26;20007;-81
2024/04/11 00:26:07;;;;;;;4.15;0.40;;;12.50;99.90;;;;;;5456435;26;20007;-80
2024/04/11 00:28:33;;;;;;;2.95;0.00;;;12.50;99.90;;;;;;5456697;26;19995;-81
2024/04/11 00:30:59;;;;;;;1.00;0.00;;;12.60;99.90;;;;;;5456790;26;20017;-81
2024/04/11 00:33:25;;;;;;;2.08;0.10;;;12.50;99.90;;;;;;5458054;26;19995;-81
2024/04/11 00:35:50;;;;;;;3.50;0.10;;;12.50;99.90;;;;;;5456469;26;20352;-81
2024/04/11 00:38:17;;;;;;;3.38;0.05;;;12.50;99.90;;;;;;5459209;26;20006;-81
2024/04/11 00:40:52;;;;;;;4.22;0.00;;;12.50;99.90;;;;;;5456326;26;20008;-81
2024/04/11 00:43:18;;;;;;;4.05;0.20;;;12.50;99.90;;;;;;5457216;26;19994;-80
2024/04/11 00:45:47;;;;;;;3.70;0.00;;;12.50;99.90;;;;;;5457787;26;20111;-81
2024/04/11 00:48:17;;;;;;;3.42;0.00;;;12.50;99.90;;;;;;5455907;26;20351;-81
2024/04/11 00:50:44;;;;;;;2.92;0.00;;;12.50;99.90;;;;;;5458008;26;19995;-81
2024/04/11 00:53:11;;;;;;;4.45;0.00;;;12.50;99.90;;;;;;5455687;26;20330;-80
2024/04/11 00:55:37;;;;;;;4.03;0.00;;;12.50;99.90;;;;;;5457941;26;20007;-80
2024/04/11 00:58:02;;;;;;;3.10;0.13;;;12.60;99.90;;;;;;5456196;26;20074;-81
2024/04/11 01:00:28;;;;;;;7.72;0.17;;;12.70;99.90;;;;;;5456335;26;19998;-80
2024/04/11 01:02:55;;;;;;;4.75;0.22;;;12.60;99.90;;;;;;5486879;26;20006;-81
2024/04/11 01:05:21;;;;;;;1.85;0.00;;;12.60;99.90;;;;;;5458408;26;19995;-81
2024/04/11 01:07:53;;;;;;;0.93;0.00;;;12.70;99.90;;;;;;5458498;26;19994;-81
2024/04/11 01:10:21;;;;;;;2.47;0.40;;;12.70;99.90;;;;;;5456428;26;20035;-81
2024/04/11 01:12:51;;;;;;;0.90;0.20;;;12.70;99.90;;;;;;5458045;26;20043;-81
2024/04/11 01:15:17;;;;;;;10.02;0.65;;;12.60;99.90;;;;;;5458339;26;20358;-81
2024/04/11 01:17:46;;;;;;;2.17;0.00;;;12.70;99.90;;;;;;5455988;26;19998;-81
2024/04/11 01:20:12;;;;;;;4.53;0.08;;;12.70;99.90;;;;;;5456363;26;20003;-81
2024/04/11 01:22:41;;;;;;;3.03;0.30;;;12.60;99.90;;;;;;5454777;26;20010;-78
2024/04/11 01:25:08;;;;;;;4.25;0.00;;;12.70;99.90;;;;;;5456865;26;20092;-81
2024/04/11 01:27:37;;;;;;;1.65;0.20;;;12.70;99.90;;;;;;5456354;26;20027;-79
2024/04/11 01:30:03;;;;;;;;;;;12.70;99.90;;;;;;5454827;26;20009;-78
2024/04/11 01:32:32;;;;;;;1.92;0.00;;;12.70;99.90;;;;;;5454550;26;19924;-80
2024/04/11 01:34:59;;;;;;;;;;;12.70;99.90;;;;;;5453239;26;20019;-81
2024/04/11 01:37:25;;;;;;;4.85;0.20;;;12.70;99.90;;;;;;5454321;26;19925;-79
2024/04/11 01:39:50;;;;;;;2.75;0.10;;;12.80;99.90;;;;;;5457632;26;20322;-81
2024/04/11 01:42:18;;;;;;;4.43;0.45;;;12.80;99.90;;;;;;5457564;26;19990;-80
2024/04/11 01:44:44;;;;;;;5.15;0.00;;;12.70;99.90;;;;;;5458430;26;19987;-78
2024/04/11 01:47:10;;;;;;;4.43;0.30;;;12.80;99.90;;;;;;5458652;26;19987;-80
2024/04/11 01:49:36;;;;;;;3.20;0.15;;;12.70;99.90;;;;;;5458888;26;20002;-81
2024/04/11 01:52:09;;;;;;;4.85;0.10;;;12.80;99.90;;;;;;5459553;26;20031;-81
2024/04/11 01:54:38;;;;;;;1.70;0.00;;;12.80;99.90;;;;;;5458823;26;19991;-81
2024/04/11 01:57:05;;;;;;;3.50;0.00;;;12.70;99.90;;;;;;5461356;26;20450;-80
2024/04/11 01:59:32;;;;;;;7.13;0.47;;;12.70;99.90;;;;;;5460472;26;20054;-81
2024/04/11 02:01:59;;;;;;;3.17;0.00;;;12.70;99.90;;;;;;5462173;26;20019;-81
2024/04/11 02:04:30;;;;;;;1.50;0.10;;;12.70;99.90;;;;;;5461261;26;20063;-81
2024/04/11 02:06:59;;;;;;;6.10;0.13;;;12.70;99.90;;;;;;5457981;26;19999;-81
2024/04/11 02:09:27;;;;;;;8.52;0.80;;;12.70;99.90;;;;;;5457785;26;20054;-81
2024/04/11 02:11:53;;;;;;;2.42;0.10;;;12.80;99.90;;;;;;5460401;26;19998;-81
2024/04/11 02:14:20;;;;;;;5.55;0.00;;;12.70;99.90;;;;;;5460174;26;20015;-80
2024/04/11 02:16:45;;;;;;;4.07;0.10;;;12.70;99.90;;;;;;5460741;26;19999;-81
2024/04/11 02:19:12;;;;;;;2.92;0.00;;;12.70;99.90;;;;;;5488716;26;20021;-80
2024/04/11 02:21:41;;;;;;;1.75;0.43;;;12.70;99.90;;;;;;5460509;26;20003;-82
2024/04/11 02:24:08;;;;;;;6.47;0.73;;;12.70;99.90;;;;;;5458277;26;19991;-81
2024/04/11 02:26:34;;;;;;;5.03;0.65;;;12.70;99.90;;;;;;5460078;26;20003;-80
2024/04/11 02:29:06;;;;;;;1.55;0.00;;;12.70;99.90;;;;;;5459062;26;20469;-81
2024/04/11 02:31:33;;;;;;;2.70;0.10;;;12.70;99.90;;;;;;5459668;26;20002;-81
2024/04/11 02:33:59;;;;;;;5.40;0.10;;;12.70;99.90;;;;;;5459194;26;20006;-81
2024/04/11 02:36:31;;;;;;;1.20;0.10;;;12.70;99.90;;;;;;5458078;26;20461;-80
2024/04/11 02:38:58;;;;;;;5.60;0.03;;;;;;;;;;5460192;26;20026;-80
2024/04/11 02:41:24;;;;;;;2.45;0.00;;;12.70;99.90;;;;;;5460142;26;20300;-80
2024/04/11 02:43:49;;;;;;;3.33;0.32;;;12.70;99.90;;;;;;5457522;26;20002;-81
2024/04/11 02:46:15;;;;;;;3.63;0.00;;;12.70;99.90;;;;;;5459736;26;20430;-81
2024/04/11 02:48:45;;;;;;;1.65;0.30;;;12.70;99.90;;;;;;5457767;26;20428;-81
2024/04/11 02:51:12;;;;;;;3.85;0.10;;;12.70;99.90;;;;;;5459340;26;19995;-81
2024/04/11 02:53:41;;;;;;;3.83;1.20;;;12.70;99.90;;;;;;5459586;26;20368;-81
2024/04/11 02:56:10;;;;;;;;;;;12.70;99.90;;;;;;5458553;26;19996;-80
2024/04/11 02:58:36;;;;;;;3.72;0.00;;;12.70;99.90;;;;;;5460245;26;19936;-81
2024/04/11 03:01:07;;;;;;;5.95;0.25;;;12.70;99.90;;;;;;5460444;26;19999;-80
2024/04/11 03:03:37;;;;;;;2.08;0.10;;;12.70;99.90;;;;;;5457653;26;20050;-80
2024/04/11 03:06:07;;;;;;;3.72;0.25;;;12.70;99.90;;;;;;5459929;26;19998;-81
2024/04/11 03:08:34;;;;;;;6.65;1.08;;;12.80;99.90;;;;;;5459437;26;20077;-80
2024/04/11 03:11:03;;;;;;;7.78;0.28;;;12.80;99.90;;;;;;5459991;26;20042;-81
2024/04/11 03:13:29;;;;;;;5.03;0.45;;;12.80;99.90;;;;;;5458103;26;20002;-81
2024/04/11 03:15:58;;;;;;;4.72;0.20;;;12.80;99.90;;;;;;5457307;26;19994;-81
2024/04/11 03:18:24;;;;;;;3.50;0.00;;;12.80;99.90;;;;;;5487873;26;19995;-81
2024/04/11 03:20:57;;;;;;;5.70;0.30;;;12.70;99.90;;;;;;5458066;26;19995;-81
2024/04/11 03:23:26;;;;;;;1.95;0.00;;;12.80;99.90;;;;;;5458570;26;20004;-80
2024/04/11 03:25:52;;;;;;;3.72;0.60;;;;;;;;;;5460778;26;20015;-81
2024/04/11 03:28:19;;;;;;;1.90;0.10;;;12.80;99.90;;;;;;5457251;26;20434;-81
2024/04/11 03:31:05;;;;;;;5.95;0.65;;;12.90;99.90;;;;;;5457741;26;19998;-80
2024/04/11 03:33:35;;;;;;;2.50;0.10;;;12.80;99.90;;;;;;5488793;26;20011;-81
2024/04/11 03:36:05;;;;;;;3.15;0.22;;;12.80;99.90;;;;;;5457979;26;19998;-81
2024/04/11 03:38:32;;;;;;;7.35;0.25;;;12.80;99.90;;;;;;5456750;26;20006;-80
2024/04/11 03:41:04;;;;;;;5.38;0.10;;;12.80;99.90;;;;;;5458577;26;20442;-81
2024/04/11 03:43:31;;;;;;;2.25;0.00;;;12.80;99.90;;;;;;5458047;26;20067;-80
2024/04/11 03:46:07;;;;;;;2.47;0.00;;;12.80;99.90;;;;;;5459044;26;20049;-80
2024/04/11 03:48:36;;;;;;;3.50;0.08;;;16.40;99.90;;;;;;5457698;26;20006;-80
2024/04/11 03:51:18;;;;;;;2.38;0.00;;;12.70;99.90;;;;;;5459991;26;20072;-81
2024/04/11 03:53:44;;;;;;;1.23;0.40;;;;;;;;;;5457629;26;20010;-80
2024/04/11 03:56:14;;;;;;;5.35;0.00;;;12.80;99.90;;;;;;5459164;26;19999;-81
2024/04/11 03:58:43;;;;;;;4.32;0.17;;;12.80;99.90;;;;;;5459550;26;19999;-81
2024/04/11 04:01:13;;;;;;;1.08;0.10;;;12.80;99.90;;;;;;5458015;26;19991;-80
2024/04/11 04:03:47;;;;;;;5.10;0.50;;;12.70;99.90;;;;;;5460220;26;19994;-80
2024/04/11 04:06:13;;;;;;;3.25;0.40;;;12.80;99.90;;;;;;5456989;26;20005;-80
2024/04/11 04:08:46;;;;;;;5.78;0.75;;;12.80;99.90;;;;;;5459631;26;20010;-80
2024/04/11 04:11:12;;;;;;;3.92;0.05;;;12.70;99.90;;;;;;5457609;26;20338;-81
2024/04/11 04:13:39;;;;;;;4.15;0.08;;;12.70;99.90;;;;;;5459792;26;20010;-80
2024/04/11 04:16:10;;;;;;;12.63;0.63;;;12.80;99.90;;;;;;5459195;26;20005;-80
2024/04/11 04:18:37;;;;;;;5.15;0.10;;;12.70;99.90;;;;;;5457664;26;19991;-80
2024/04/11 04:21:04;;;;;;;2.83;0.45;;;12.70;99.90;;;;;;5456174;26;19995;-80
2024/04/11 04:23:30;;;;;;;2.00;0.15;;;12.80;99.90;;;;;;5458493;26;20071;-80
2024/04/11 04:26:04;;;;;;;5.85;0.50;;;12.80;99.90;;;;;;5458846;26;20017;-80
2024/04/11 04:28:34;;;;;;;2.85;0.90;;;12.80;99.90;;;;;;5458607;26;19999;-80
2024/04/11 04:31:16;;;;;;;3.90;0.00;;;12.80;99.90;;;;;;5456168;26;19991;-80
2024/04/11 04:33:47;;;;;;;4.68;0.10;;;12.70;99.90;;;;;;5458506;26;20404;-80
2024/04/11 04:36:16;;;;;;;4.40;0.00;;;12.70;99.90;;;;;;5459111;26;20002;-80
2024/04/11 04:38:44;;;;;;;0.80;0.00;;;12.70;99.90;;;;;;5458627;26;20010;-81
2024/04/11 04:41:11;;;;;;;4.70;0.35;;;12.70;99.90;;;;;;5458970;26;19994;-80
2024/04/11 04:43:37;;;;;;;6.85;0.00;;;12.80;99.90;;;;;;5457206;26;19998;-80
2024/04/11 04:46:05;;;;;;;3.65;0.10;;;12.70;99.90;;;;;;5457944;26;19998;-80
2024/04/11 04:48:32;;;;;;;3.95;0.03;;;12.70;99.90;;;;;;5459115;26;20006;-80
2024/04/11 04:50:58;;;;;;;2.70;0.00;;;12.60;99.90;;;;;;5456182;26;20098;-80
2024/04/11 04:53:25;;;;;;;1.98;0.00;;;12.60;99.90;;;;;;5457845;26;20027;-79
2024/04/11 04:55:52;;;;;;;2.80;0.10;;;12.70;99.90;;;;;;5455615;26;20005;-79
2024/04/11 04:58:19;;;;;;;2.70;0.10;;;12.70;99.90;;;;;;5456475;26;19998;-80
2024/04/11 05:00:45;;;;;;;6.65;0.03;;;12.60;99.90;;;;;;5457877;26;19995;-80
2024/04/11 05:03:12;;;;;;;7.22;0.28;;;12.70;99.90;;;;;;5456659;26;20041;-80
2024/04/11 05:05:38;;;;;;;2.63;0.10;;;12.60;99.90;;;;;;5456519;26;19995;-80
2024/04/11 05:08:07;;;;;;;4.65;0.93;;;12.60;99.90;;;;;;5456970;26;20005;-80
2024/04/11 05:10:37;;;;;;;2.67;0.20;;;12.60;99.90;;;;;;5459252;26;19995;-80
2024/04/11 05:13:09;;;;;;;5.40;0.10;;;12.60;99.90;;;;;;5488196;26;20002;-79
2024/04/11 05:15:41;;;;;;;4.88;0.20;;;12.50;99.90;;;;;;5459178;26;20007;-81
2024/04/11 05:18:07;;;;;;;5.03;0.20;;;12.40;99.90;;;;;;5459012;26;20048;-82
2024/04/11 05:20:33;;;;;;;2.60;0.40;;;12.30;99.90;;;;;;5460904;26;20402;-81
2024/04/11 05:23:06;;;;;;;4.50;0.00;;;12.30;99.90;;;;;;5488376;26;20023;-81
2024/04/11 05:25:33;;;;;;;7.32;0.80;;;12.30;99.90;;;;;;5489016;26;19999;-81
2024/04/11 05:28:07;;;;;;;3.05;0.38;;;12.30;99.90;;;;;;5459334;26;20072;-81
2024/04/11 05:30:34;;;;;;;1.63;0.52;;;12.30;99.90;;;;;;5458969;26;19999;-81
2024/04/11 05:33:00;;;;;;;4.50;0.90;;;12.20;99.90;;;;;;5458525;26;20380;-81
2024/04/11 05:35:26;;;;;;;3.83;0.30;;;12.30;99.90;;;;;;5456317;26;19990;-80
2024/04/11 05:37:53;;;;;;;3.60;0.55;;;12.00;99.90;;;;;;5456537;26;19991;-81
2024/04/11 05:40:21;;;;;;;3.75;0.68;;;12.00;99.90;;;;;;5459025;26;20010;-81
2024/04/11 05:42:48;;;;;;;4.68;0.30;;;12.00;99.90;;;;;;5456261;26;19998;-80
2024/04/11 05:45:19;;;;;;;3.60;0.20;;;11.90;99.90;;;;;;5458146;26;19998;-80
2024/04/11 05:47:48;;;;;;;4.80;0.20;;;12.00;99.90;;;;;;5456181;26;19995;-81
2024/04/11 05:50:18;;;;;;;3.65;0.30;;;12.00;99.90;;;;;;5458524;26;19999;-81
2024/04/11 05:52:49;;;;;;;4.60;0.10;;;12.80;99.90;;;;;;5456681;26;19999;-81
2024/04/11 05:55:16;;;;;;;2.15;0.25;;;12.00;99.90;;;;;;5457618;26;19991;-81
2024/04/11 05:57:43;;;;;;;9.48;0.93;;;11.90;99.90;;;;;;5457109;26;19995;-81
2024/04/11 06:00:11;;;;;;;2.50;0.30;;;12.00;99.90;;;;;;5457764;26;20461;-81
2024/04/11 06:02:38;;;;;;;4.78;0.25;;;12.00;99.90;;;;;;5456746;26;20006;-81
2024/04/11 06:05:12;;;;;;;4.43;0.57;;;12.00;99.90;;;;;;5459044;26;19995;-81
2024/04/11 06:07:39;;;;;;;4.05;0.45;;;12.10;99.90;;;;;;5458738;26;20010;-80
2024/04/11 06:10:06;;;;;;;5.47;0.43;;;12.00;99.90;;;;;;5457139;26;19998;-80
2024/04/11 06:12:32;;;;;;;2.80;0.50;;;12.10;99.90;;;;;;5457966;26;20006;-81
2024/04/11 06:14:57;;;;;;;5.30;0.63;;;12.00;99.90;;;;;;5458654;26;19995;-81
2024/04/11 06:17:23;;;;;;;6.90;0.65;;;12.00;99.90;;;;;;5456612;26;19995;-81
2024/04/11 06:19:48;;;;;;;2.33;0.60;;;11.90;99.90;;;;;;5459233;26;20036;-80
2024/04/11 06:22:16;;;;;;;4.90;1.17;;;12.00;99.90;;;;;;5458619;26;20473;-81
2024/04/11 06:24:45;;;;;;;6.90;1.17;;;12.10;99.90;;;;;;5487177;26;19991;-81
2024/04/11 06:27:12;;;;;;;3.35;0.52;;;12.10;99.90;;;;;;5455974;26;19999;-81
2024/04/11 06:29:38;;;;;;;5.03;0.50;;;12.00;99.90;;;;;;5456071;26;20011;-81
2024/04/11 06:32:06;;;;;;;5.45;1.48;;;12.00;99.90;;;;;;5461416;26;19995;-81
2024/04/11 06:34:33;;;;;;;5.63;1.10;;;12.10;99.90;;;;;;5459805;26;20482;-80
2024/04/11 06:36:58;;;;;;;7.50;0.82;;;12.20;99.90;;;;;;5459864;26;19995;-81
2024/04/11 06:39:24;;;;;;;5.00;1.00;;;12.40;99.90;;;;;;5458370;26;19991;-81
2024/04/11 06:41:51;;;;;;;9.05;0.88;;;12.00;99.90;;;;;;5460127;26;19998;-82
2024/04/11 06:44:17;;;;;;;4.47;0.30;;;12.00;99.90;;;;;;5460291;26;19995;-82
2024/04/11 06:46:46;;;;;;;7.18;0.80;;;12.00;99.90;;;;;;5458548;26;19991;-81
2024/04/11 06:49:12;;;;;;;3.20;0.50;;;12.00;99.90;;;;;;5460151;26;20014;-81
2024/04/11 06:51:39;;;;;;;11.45;0.88;;;12.00;99.90;;;;;;5460581;26;20449;-81
2024/04/11 06:54:05;;;;;;;6.95;1.10;;;12.10;99.90;;;;;;5460679;26;20164;-82
2024/04/11 06:56:31;;;;;;;7.15;1.10;;;12.00;99.90;;;;;;5461112;26;20010;-80
2024/04/11 06:58:57;;;;;;;10.13;0.88;;;12.10;99.90;;;;;;5459775;26;20067;-81
2024/04/11 07:01:23;;;;;;;7.43;0.73;;;12.10;99.90;;;;;;5462220;26;19999;-81
2024/04/11 07:03:53;;;;;;;5.70;2.00;;;12.10;99.90;;;;;;5489345;26;20080;-81
2024/04/11 07:06:22;;;;;;;3.30;1.02;;;12.10;99.90;;;;;;5460978;26;20030;-81
2024/04/11 07:08:48;;;;;;;6.47;0.82;;;12.20;99.90;;;;;;5460418;26;20442;-81
2024/04/11 07:11:19;;;;;;;4.82;0.65;;;12.20;99.90;;;;;;5458631;26;19991;-81
2024/04/11 07:13:55;;;;;;;5.82;0.50;;;12.20;99.90;;;;;;5459114;26;19994;-82
2024/04/11 07:16:40;;;;;;;5.60;0.98;;;12.20;99.90;;;;;;5458567;26;20063;-81
2024/04/11 07:19:08;;;;;;;10.88;1.95;;;12.20;99.90;;;;;;5460356;26;20466;-81
2024/04/11 07:21:34;;;;;;;5.28;1.25;;;12.30;99.90;;;;;;5490550;26;20323;-81
2024/04/11 07:24:03;;;;;;;7.57;1.02;;;12.20;99.90;;;;;;5459316;26;20007;-81
2024/04/11 07:26:31;;;;;;;8.88;0.82;;;15.20;99.90;;;;;;5460160;26;20028;-81
2024/04/11 07:28:59;;;;;;;4.90;1.15;;;12.30;99.90;;;;;;5490382;26;20445;-81
2024/04/11 07:31:25;;;;;;;5.95;1.33;;;12.30;99.90;;;;;;5460703;26;19990;-80
2024/04/11 07:33:51;;;;;;;5.63;1.15;;;12.30;99.90;;;;;;5458729;26;19999;-81
2024/04/11 07:36:21;;;;;;;5.57;0.73;;;12.30;99.90;;;;;;5461431;26;19995;-81
2024/04/11 07:38:47;;;;;;;2.70;0.30;;;12.30;99.90;;;;;;5460128;26;20040;-81
2024/04/11 07:41:16;;;;;;;9.50;1.15;;;12.30;99.90;;;;;;5458556;26;20002;-81
2024/04/11 07:43:57;;;;;;;;;;;12.30;99.90;;;;;;5461579;26;20010;-81
2024/04/11 07:46:33;;;;;;;5.45;1.00;;;12.30;99.90;;;;;;5459997;26;19936;-81
2024/04/11 07:48:59;;;;;;;9.18;1.10;;;12.30;99.90;;;;;;5489609;26;19999;-81
2024/04/11 07:51:26;;;;;;;6.95;1.33;;;12.30;99.90;;;;;;5459563;26;20031;-81
2024/04/11 07:53:51;;;;;;;9.00;1.00;;;12.30;99.90;;;;;;5461421;26;19998;-81
2024/04/11 07:56:25;;;;;;;7.15;1.10;;;12.30;99.90;;;;;;5459448;26;20442;-81
2024/04/11 07:58:55;;;;;;;6.00;1.80;;;12.30;99.90;;;;;;5460957;26;19998;-81
2024/04/11 08:01:31;;;;;;;7.10;1.70;;;12.30;99.90;;;;;;5460333;26;20005;-81
2024/04/11 08:03:58;;;;;;;5.78;1.15;;;12.40;99.90;;;;;;5460766;26;20072;-81
2024/04/11 08:06:24;;;;;;;8.45;1.25;;;;;;;;;;5458189;26;20022;-81
2024/04/11 08:08:51;;;;;;;7.85;1.55;;;12.40;99.90;;;;;;5458925;26;20023;-81
2024/04/11 08:11:16;;;;;;;10.52;2.33;;;12.40;99.90;;;;;;5458411;26;20023;-81
2024/04/11 08:13:44;;;;;;;6.20;1.48;;;12.40;99.90;;;;;;5459960;26;19995;-81
2024/04/11 08:16:10;;;;;;;7.03;1.70;;;12.50;99.90;;;;;;5459084;26;20003;-81
2024/04/11 08:18:39;;;;;;;7.97;2.33;;;12.50;99.90;;;;;;5459677;26;20070;-80
2024/04/11 08:21:08;;;;;;;6.22;1.70;;;12.50;99.90;;;;;;5457173;26;20362;-81
2024/04/11 08:23:42;;;;;;;5.07;1.60;;;12.50;99.90;;;;;;5456292;26;20040;-80
2024/04/11 08:26:12;;;;;;;7.07;1.83;;;12.40;99.90;;;;;;5458711;26;19995;-80
2024/04/11 08:28:39;;;;;;;10.75;1.90;;;12.60;99.90;;;;;;5459766;26;20067;-81
2024/04/11 08:31:08;;;;;;;6.97;1.88;;;12.60;99.90;;;;;;5459772;26;20013;-81
2024/04/11 08:33:38;;;;;;;6.00;2.42;;;12.70;99.90;;;;;;5456854;26;20338;-81
2024/04/11 08:36:05;;;;;;;8.18;2.50;;;12.60;99.90;;;;;;5456871;26;20006;-81
2024/04/11 08:38:33;;;;;;;8.15;2.60;;;12.50;99.90;;;;;;5458988;26;20096;-81
2024/04/11 08:41:06;;;;;;;8.60;2.63;;;12.60;99.90;;;;;;5458440;26;20376;-81
2024/04/11 08:43:32;;;;;;;8.57;2.53;;;12.60;99.90;;;;;;5459845;26;20038;-81
2024/04/11 08:45:58;;;;;;;7.85;3.45;;;12.70;99.90;;;;;;5457167;26;20041;-81
2024/04/11 08:48:24;;;;;;;6.30;3.03;;;;;;;;;;5457419;26;20335;-81
2024/04/11 08:50:53;;;;;;;8.07;2.80;;;12.70;99.90;;;;;;5456914;26;19991;-81
2024/04/11 08:53:23;;;;;;;6.95;2.55;;;12.70;99.90;;;;;;5458514;26;19995;-81
2024/04/11 08:55:51;;;;;;;9.70;2.92;;;12.70;99.90;;;;;;5459584;26;19995;-81
2024/04/11 08:58:18;;;;;;;7.55;2.70;;;12.70;99.90;;;;;;5458504;26;19995;-81
2024/04/11 09:00:48;;;;;;;8.35;3.17;;;12.70;99.90;;;;;;5456793;26;20040;-80
2024/04/11 09:03:15;;;;;;;7.53;2.60;;;;;;;;;;5457702;26;20002;-81
2024/04/11 09:05:42;;;;;;;12.25;3.03;;;12.70;99.90;;;;;;5456464;26;20177;-81
2024/04/11 09:08:10;;;;;;;7.82;3.03;;;12.80;99.90;;;;;;5459132;26;20452;-81
2024/04/11 09:10:39;;;;;;;6.20;2.50;;;12.80;99.90;;;;;;5456597;26;20081;-81
2024/04/11 09:13:04;;;;;;;8.27;2.97;;;12.70;99.90;;;;;;5457049;26;19999;-81
2024/04/11 09:15:32;;;;;;;9.35;3.42;;;12.80;99.90;;;;;;5456854;26;20006;-81
2024/04/11 09:17:59;;;;;;;10.02;3.28;;;12.80;99.90;;;;;;5457994;26;20015;-81
2024/04/11 09:20:25;;;;;;;10.93;3.35;;;12.80;99.90;;;;;;5458682;26;19995;-81
2024/04/11 09:22:59;;;;;;;9.18;4.15;;;12.70;99.90;;;;;;5458218;26;20006;-80
2024/04/11 09:25:30;;;;;;;12.05;2.78;;;12.80;99.90;;;;;;5456945;26;20002;-81
2024/04/11 09:27:59;;;;;;;7.88;3.45;;;12.80;99.90;;;;;;5456502;26;20010;-81
2024/04/11 09:30:29;;;;;;;7.18;3.72;;;12.80;99.90;;;;;;5456507;26;19995;-81
2024/04/11 09:33:04;;;;;;;8.82;4.32;;;12.80;99.90;;;;;;5456574;26;20063;-81
2024/04/11 09:35:40;;;;;;;9.38;4.38;;;12.90;99.90;;;;;;5455483;26;20006;-81
2024/04/11 09:38:12;;;;;;;9.25;3.72;;;12.90;99.90;;;;;;5457072;26;20010;-81
2024/04/11 09:40:50;;;;;;;9.88;3.83;;;12.90;99.90;;;;;;5457946;26;20010;-81
2024/04/11 09:43:17;;;;;;;12.48;4.65;;;13.00;99.90;;;;;;5457966;26;20007;-81
2024/04/11 09:45:56;;;;;;;7.80;3.72;;;13.00;99.90;;;;;;5455175;26;20002;-81
2024/04/11 09:48:22;;;;;;;;;;;13.00;99.90;;;;;;5458925;26;20395;-81
2024/04/11 09:50:50;;;;;;;13.27;4.60;;;13.10;99.90;;;;;;5457177;26;19924;-81
2024/04/11 09:53:26;;;;;;;11.88;4.22;;;13.00;99.90;;;;;;5455061;26;19990;-80
2024/04/11 09:55:59;;;;;;;10.50;4.47;;;13.10;99.90;;;;;;5455464;26;20063;-80
2024/04/11 09:58:29;;;;;;;12.02;4.20;;;13.20;99.90;;;;;;5457434;26;20114;-80
2024/04/11 10:01:08;;;;;;;9.82;4.65;;;13.10;99.90;;;;;;5457655;26;19999;-80
2024/04/11 10:03:39;;;;;;;8.63;4.38;;;13.20;99.90;;;;;;5457286;26;20469;-81
2024/04/11 10:06:13;;;;;;;8.30;3.90;;;13.20;99.90;;;;;;5459078;26;19991;-81
2024/04/11 10:08:42;;;;;;;13.75;4.28;;;13.30;99.90;;;;;;5461178;26;19999;-81
2024/04/11 10:11:10;;;;;;;11.82;4.28;;;13.30;99.90;;;;;;5460690;26;19994;-80
2024/04/11 10:13:42;;;;;;;14.50;5.07;;;13.40;99.90;;;;;;5460888;26;20439;-81
2024/04/11 10:16:29;;;;;;;9.02;4.65;;;13.40;99.90;;;;;;5454730;26;20136;-76
2024/04/11 10:19:04;;;;;;;13.97;5.17;;;13.50;99.90;;;;;;5456351;26;19999;-76
2024/04/11 10:21:33;;;;;;;11.32;6.05;;;13.60;99.90;;;;;;5454365;26;19995;-76
2024/04/11 10:24:14;;;;;;;10.55;5.20;;;13.60;99.90;;;;;;5456104;26;20447;-77
2024/04/11 10:26:42;;;;;;;11.57;5.63;;;13.70;99.90;;;;;;5453872;26;20023;-77
2024/04/11 10:29:18;;;;;;;7.88;4.15;;;13.70;99.90;;;;;;5455877;26;20072;-76
2024/04/11 10:31:44;;;;;;;7.38;4.10;;;13.80;99.90;;;;;;5455841;26;19999;-76
2024/04/11 10:34:19;;;;;;;8.82;4.55;;;13.80;99.90;;;;;;5455971;26;20118;-76
2024/04/11 10:36:54;;;;;;;7.68;4.43;;;13.80;99.90;;;;;;5455276;26;20030;-76
2024/04/11 10:39:21;;;;;;;9.80;4.53;;;13.80;99.90;;;;;;5455715;26;19995;-77
2024/04/11 10:41:51;;;;;;;8.88;4.15;;;13.90;99.90;;;;;;5455476;26;19999;-76
2024/04/11 10:44:18;;;;;;;10.07;4.22;;;14.00;99.90;;;;;;5455549;26;19995;-76
2024/04/11 10:46:44;;;;;;;12.05;5.03;;;13.90;99.90;;;;;;5455388;26;19999;-76
2024/04/11 10:49:15;;;;;;;8.27;4.78;;;13.90;99.90;;;;;;5455674;26;20442;-76
2024/04/11 10:51:42;;;;;;;11.68;5.03;;;13.90;99.90;;;;;;5455669;26;19999;-76
2024/04/11 10:54:11;;;;;;;9.40;5.38;;;13.80;99.90;;;;;;5455801;26;20002;-76
2024/04/11 10:56:41;;;;;;;15.48;5.22;;;15.70;99.90;;;;;;5455247;26;20029;-76
2024/04/11 10:59:14;;;;;;;9.50;4.90;;;13.80;99.90;;;;;;5453209;26;20002;-77
2024/04/11 11:01:47;;;;;;;12.73;5.20;;;13.90;99.90;;;;;;5455144;26;20010;-77
2024/04/11 11:04:15;;;;;;;11.00;4.05;;;13.90;99.90;;;;;;5483905;26;19999;-76
2024/04/11 11:06:47;;;;;;;13.43;6.57;;;13.90;99.90;;;;;;5455057;26;20006;-76
2024/04/11 11:09:17;;;;;;;9.85;3.88;;;13.90;99.90;;;;;;5453349;26;20212;-76
2024/04/11 11:11:44;;;;;;;8.07;3.92;;;13.90;99.90;;;;;;5452742;26;20418;-76
2024/04/11 11:14:17;;;;;;;8.70;4.13;;;13.90;99.90;;;;;;5455059;26;19995;-76
2024/04/11 11:16:44;;;;;;;12.30;5.20;;;13.90;99.90;;;;;;5453763;26;20365;-76
2024/04/11 11:19:16;;;;;;;12.93;4.45;;;13.90;99.90;;;;;;5452751;26;19999;-76
2024/04/11 11:21:51;;;;;;;9.57;4.82;;;13.90;99.90;;;;;;5454380;26;20012;-76
2024/04/11 11:24:23;;;;;;;8.73;4.65;;;13.90;99.90;;;;;;5454733;26;20447;-76
2024/04/11 11:26:56;;;;;;;9.27;4.35;;;14.00;99.90;;;;;;5452296;26;20461;-76
2024/04/11 11:29:25;;;;;;;9.40;4.57;;;14.00;99.90;;;;;;5454396;26;20009;-76
2024/04/11 11:31:53;;;;;;;11.73;4.57;;;13.90;99.90;;;;;;5454355;26;20022;-76
2024/04/11 11:34:27;;;;;;;10.35;5.20;;;14.00;99.90;;;;;;5452736;26;19999;-76
2024/04/11 11:36:59;;;;;;;9.95;4.13;;;14.10;99.90;;;;;;5482655;26;19999;-77
2024/04/11 11:39:28;;;;;;;7.78;4.50;;;14.20;99.90;;;;;;5454299;26;19999;-76
2024/04/11 11:42:00;;;;;;;;;;;14.30;99.90;;;;;;5452768;26;20392;-76
2024/04/11 11:44:34;;;;;;;10.70;4.30;;;14.40;99.90;;;;;;5452467;26;19940;-76
2024/04/11 11:47:08;;;;;;;8.48;3.25;;;14.50;99.90;;;;;;5452059;26;20001;-76
2024/04/11 11:49:37;;;;;;;5.00;3.13;;;14.50;99.90;;;;;;5454281;26;20395;-76
2024/04/11 11:52:08;;;;;;;10.18;3.13;;;14.50;99.90;;;;;;5453914;26;19999;-76
2024/04/11 11:54:41;;;;;;;6.03;3.17;;;14.50;99.90;;;;;;5454053;26;20009;-76
2024/04/11 11:57:17;;;;;;;10.88;3.70;;;14.60;99.90;;;;;;5482241;26;19998;-76
2024/04/11 11:59:47;;;;;;;6.10;3.83;;;14.70;99.90;;;;;;5454644;26;20027;-76
2024/04/11 12:02:14;;;;;;;11.07;4.03;;;14.60;99.90;;;;;;5454014;26;19998;-76
2024/04/11 12:04:52;;;;;;;8.43;3.65;;;14.60;99.90;;;;;;5451967;26;20014;-76
2024/04/11 12:07:19;;;;;;;6.97;3.47;;;14.60;99.90;;;;;;5454348;26;19994;-76
2024/04/11 12:09:45;;;;;;;5.45;3.42;;;14.60;99.90;;;;;;5452284;26;20511;-76
2024/04/11 12:12:23;;;;;;;7.43;3.80;;;14.60;99.90;;;;;;5454491;26;20049;-76
2024/04/11 12:15:04;;;;;;;7.35;3.58;;;14.60;99.90;;;;;;5454413;26;19998;-76
2024/04/11 12:17:30;;;;;;;7.63;4.28;;;14.80;99.90;;;;;;5453826;26;19995;-76
2024/04/11 12:20:05;;;;;;;5.78;2.95;;;14.90;99.90;;;;;;5454459;26;20009;-76
2024/04/11 12:22:33;;;;;;;7.25;4.05;;;15.00;99.90;;;;;;5454366;26;19999;-76
2024/04/11 12:25:01;;;;;;;7.07;3.03;;;15.00;99.90;;;;;;5453876;26;20084;-76
2024/04/11 12:27:28;;;;;;;8.30;4.50;;;15.00;99.90;;;;;;5452540;26;20006;-76
2024/04/11 12:29:58;;;;;;;5.57;3.42;;;15.00;99.90;;;;;;5452208;26;20018;-76
2024/04/11 12:32:25;;;;;;;6.78;3.10;;;15.10;99.90;;;;;;5454315;26;20005;-76
2024/04/11 12:34:55;;;;;;;5.13;2.60;;;15.20;99.90;;;;;;5453774;26;19999;-76
2024/04/11 12:37:24;;;;;;;7.60;3.83;;;15.20;99.90;;;;;;5454685;26;20071;-80
2024/04/11 12:39:54;;;;;;;6.25;3.78;;;15.30;99.90;;;;;;5459915;26;20430;-80
2024/04/11 12:42:22;;;;;;;5.68;3.65;;;15.40;99.90;;;;;;5458706;26;20072;-80
2024/04/11 12:44:48;;;;;;;7.22;3.22;;;15.40;99.90;;;;;;5457393;26;20014;-80
2024/04/11 12:47:14;;;;;;;6.20;3.08;;;15.40;99.90;;;;;;5457256;26;20017;-80
2024/04/11 12:49:47;;;;;;;5.72;3.80;;;15.40;99.90;;;;;;5459925;26;20333;-80
2024/04/11 12:52:13;;;;;;;6.03;3.00;;;15.40;99.90;;;;;;5487840;26;20376;-80
2024/04/11 12:54:40;;;;;;;5.95;2.92;;;15.40;99.90;;;;;;5459921;26;20021;-80
2024/04/11 12:57:06;;;;;;;6.93;3.42;;;15.40;99.90;;;;;;5457445;26;20067;-80
2024/04/11 12:59:35;;;;;;;6.70;3.08;;;15.30;99.90;;;;;;5459554;26;20023;-80